sensor_id;sensor_type;location;lat;lon;timestamp;P1;durP1;ratioP1;P2;durP2;ratioP2
22752;SDS011;11543;43.144;24.684;2024-01-30T00:02:14;21.08;;;13.48;;
22752;SDS011;11543;43.144;24.684;2024-01-30T00:04:39;25.17;;;14.35;;
22752;SDS011;11543;43.144;24.684;2024-01-30T00:07:05;24.50;;;14.63;;
22752;SDS011;11543;43.144;24.684;2024-01-30T00:09:31;32.65;;;18.80;;
22752;SDS011;11543;43.144;24.684;2024-01-30T00:11:57;37.35;;;21.48;;
22752;SDS011;11543;43.144;24.684;2024-01-30T00:14:22;35.38;;;20.42;;
22752;SDS011;11543;43.144;24.684;2024-01-30T00:16:48;37.15;;;21.15;;
22752;SDS011;11543;43.144;24.684;2024-01-30T00:19:13;37.50;;;20.17;;
22752;SDS011;11543;43.144;24.684;2024-01-30T00:21:39;31.15;;;18.63;;
22752;SDS011;11543;43.144;24.684;2024-01-30T00:24:04;31.70;;;17.83;;
22752;SDS011;11543;43.144;24.684;2024-01-30T00:26:30;24.35;;;14.85;;
22752;SDS011;11543;43.144;24.684;2024-01-30T00:28:55;26.83;;;15.13;;
22752;SDS011;11543;43.144;24.684;2024-01-30T00:31:21;25.42;;;14.50;;
22752;SDS011;11543;43.144;24.684;2024-01-30T00:33:46;23.90;;;14.25;;
22752;SDS011;11543;43.144;24.684;2024-01-30T00:36:12;26.63;;;14.23;;
22752;SDS011;11543;43.144;24.684;2024-01-30T00:38:38;25.55;;;13.90;;
22752;SDS011;11543;43.144;24.684;2024-01-30T00:41:03;25.05;;;15.05;;
22752;SDS011;11543;43.144;24.684;2024-01-30T00:43:30;23.95;;;15.20;;
22752;SDS011;11543;43.144;24.684;2024-01-30T00:45:56;24.50;;;14.63;;
22752;SDS011;11543;43.144;24.684;2024-01-30T00:48:23;23.00;;;14.38;;
22752;SDS011;11543;43.144;24.684;2024-01-30T00:50:48;24.85;;;14.73;;
22752;SDS011;11543;43.144;24.684;2024-01-30T00:53:14;24.45;;;14.93;;
22752;SDS011;11543;43.144;24.684;2024-01-30T00:55:39;27.73;;;15.20;;
22752;SDS011;11543;43.144;24.684;2024-01-30T00:58:05;24.30;;;15.00;;
22752;SDS011;11543;43.144;24.684;2024-01-30T01:00:30;24.90;;;15.25;;
22752;SDS011;11543;43.144;24.684;2024-01-30T01:02:57;27.02;;;15.73;;
22752;SDS011;11543;43.144;24.684;2024-01-30T01:05:23;26.35;;;15.52;;
22752;SDS011;11543;43.144;24.684;2024-01-30T01:07:48;24.00;;;14.93;;
22752;SDS011;11543;43.144;24.684;2024-01-30T01:10:14;26.35;;;15.50;;
22752;SDS011;11543;43.144;24.684;2024-01-30T01:12:41;26.35;;;15.77;;
22752;SDS011;11543;43.144;24.684;2024-01-30T01:15:07;29.20;;;15.15;;
22752;SDS011;11543;43.144;24.684;2024-01-30T01:17:34;24.73;;;14.82;;
22752;SDS011;11543;43.144;24.684;2024-01-30T01:20:01;24.00;;;14.00;;
22752;SDS011;11543;43.144;24.684;2024-01-30T01:22:27;25.92;;;14.93;;
22752;SDS011;11543;43.144;24.684;2024-01-30T01:24:52;22.23;;;14.00;;
22752;SDS011;11543;43.144;24.684;2024-01-30T01:27:18;23.45;;;14.23;;
22752;SDS011;11543;43.144;24.684;2024-01-30T01:29:43;26.33;;;14.95;;
22752;SDS011;11543;43.144;24.684;2024-01-30T01:32:09;20.95;;;13.27;;
22752;SDS011;11543;43.144;24.684;2024-01-30T01:34:34;23.63;;;13.60;;
22752;SDS011;11543;43.144;24.684;2024-01-30T01:37:00;22.90;;;13.90;;
22752;SDS011;11543;43.144;24.684;2024-01-30T01:39:25;24.10;;;14.05;;
22752;SDS011;11543;43.144;24.684;2024-01-30T01:41:51;38.15;;;20.83;;
22752;SDS011;11543;43.144;24.684;2024-01-30T01:44:17;33.53;;;18.58;;
22752;SDS011;11543;43.144;24.684;2024-01-30T01:46:43;25.17;;;15.07;;
22752;SDS011;11543;43.144;24.684;2024-01-30T01:49:09;26.30;;;14.40;;
22752;SDS011;11543;43.144;24.684;2024-01-30T01:51:35;22.27;;;13.35;;
22752;SDS011;11543;43.144;24.684;2024-01-30T01:54:03;22.83;;;13.48;;
22752;SDS011;11543;43.144;24.684;2024-01-30T01:56:30;19.90;;;11.73;;
22752;SDS011;11543;43.144;24.684;2024-01-30T01:58:56;23.17;;;12.88;;
22752;SDS011;11543;43.144;24.684;2024-01-30T02:01:27;21.92;;;12.30;;
22752;SDS011;11543;43.144;24.684;2024-01-30T02:03:54;19.80;;;11.80;;
22752;SDS011;11543;43.144;24.684;2024-01-30T02:06:20;21.00;;;12.07;;
22752;SDS011;11543;43.144;24.684;2024-01-30T02:08:45;21.52;;;12.65;;
22752;SDS011;11543;43.144;24.684;2024-01-30T02:11:11;20.38;;;11.82;;
22752;SDS011;11543;43.144;24.684;2024-01-30T02:13:36;17.75;;;11.27;;
22752;SDS011;11543;43.144;24.684;2024-01-30T02:16:02;21.48;;;12.23;;
22752;SDS011;11543;43.144;24.684;2024-01-30T02:18:28;21.85;;;12.65;;
22752;SDS011;11543;43.144;24.684;2024-01-30T02:20:54;20.63;;;12.18;;
22752;SDS011;11543;43.144;24.684;2024-01-30T02:23:26;23.20;;;12.38;;
22752;SDS011;11543;43.144;24.684;2024-01-30T02:25:52;20.95;;;12.82;;
22752;SDS011;11543;43.144;24.684;2024-01-30T02:28:19;25.67;;;15.82;;
22752;SDS011;11543;43.144;24.684;2024-01-30T02:30:45;28.25;;;15.95;;
22752;SDS011;11543;43.144;24.684;2024-01-30T02:33:11;29.58;;;16.08;;
22752;SDS011;11543;43.144;24.684;2024-01-30T02:35:37;25.00;;;15.77;;
22752;SDS011;11543;43.144;24.684;2024-01-30T02:38:03;21.92;;;13.20;;
22752;SDS011;11543;43.144;24.684;2024-01-30T02:40:29;22.75;;;12.15;;
22752;SDS011;11543;43.144;24.684;2024-01-30T02:42:55;25.08;;;13.40;;
22752;SDS011;11543;43.144;24.684;2024-01-30T02:45:21;21.63;;;13.70;;
22752;SDS011;11543;43.144;24.684;2024-01-30T02:47:47;21.00;;;12.27;;
22752;SDS011;11543;43.144;24.684;2024-01-30T02:50:12;22.92;;;12.60;;
22752;SDS011;11543;43.144;24.684;2024-01-30T02:52:38;19.80;;;11.00;;
22752;SDS011;11543;43.144;24.684;2024-01-30T02:55:03;20.85;;;11.82;;
22752;SDS011;11543;43.144;24.684;2024-01-30T02:57:29;17.25;;;10.48;;
22752;SDS011;11543;43.144;24.684;2024-01-30T02:59:55;18.38;;;11.23;;
22752;SDS011;11543;43.144;24.684;2024-01-30T03:02:20;17.10;;;11.02;;
22752;SDS011;11543;43.144;24.684;2024-01-30T03:04:46;20.50;;;11.02;;
22752;SDS011;11543;43.144;24.684;2024-01-30T03:07:11;24.63;;;12.20;;
22752;SDS011;11543;43.144;24.684;2024-01-30T03:09:37;22.52;;;12.30;;
22752;SDS011;11543;43.144;24.684;2024-01-30T03:12:03;21.10;;;12.27;;
22752;SDS011;11543;43.144;24.684;2024-01-30T03:14:30;22.23;;;11.82;;
22752;SDS011;11543;43.144;24.684;2024-01-30T03:16:57;19.80;;;11.77;;
22752;SDS011;11543;43.144;24.684;2024-01-30T03:19:22;17.50;;;11.70;;
22752;SDS011;11543;43.144;24.684;2024-01-30T03:21:48;20.25;;;12.43;;
22752;SDS011;11543;43.144;24.684;2024-01-30T03:24:14;19.83;;;11.63;;
22752;SDS011;11543;43.144;24.684;2024-01-30T03:26:39;22.08;;;12.60;;
22752;SDS011;11543;43.144;24.684;2024-01-30T03:29:04;22.00;;;13.38;;
22752;SDS011;11543;43.144;24.684;2024-01-30T03:31:30;27.42;;;14.88;;
22752;SDS011;11543;43.144;24.684;2024-01-30T03:33:55;25.90;;;14.23;;
22752;SDS011;11543;43.144;24.684;2024-01-30T03:36:21;22.83;;;13.10;;
22752;SDS011;11543;43.144;24.684;2024-01-30T03:38:46;23.58;;;12.90;;
22752;SDS011;11543;43.144;24.684;2024-01-30T03:41:12;20.40;;;12.30;;
22752;SDS011;11543;43.144;24.684;2024-01-30T03:43:37;22.90;;;13.13;;
22752;SDS011;11543;43.144;24.684;2024-01-30T03:46:03;20.58;;;12.65;;
22752;SDS011;11543;43.144;24.684;2024-01-30T03:48:29;21.95;;;12.48;;
22752;SDS011;11543;43.144;24.684;2024-01-30T03:50:55;20.88;;;12.48;;
22752;SDS011;11543;43.144;24.684;2024-01-30T03:53:20;21.67;;;12.25;;
22752;SDS011;11543;43.144;24.684;2024-01-30T03:55:46;26.30;;;15.02;;
22752;SDS011;11543;43.144;24.684;2024-01-30T03:58:11;28.50;;;15.80;;
22752;SDS011;11543;43.144;24.684;2024-01-30T04:00:37;25.13;;;15.82;;
22752;SDS011;11543;43.144;24.684;2024-01-30T04:03:03;25.08;;;14.52;;
22752;SDS011;11543;43.144;24.684;2024-01-30T04:05:28;24.75;;;13.57;;
22752;SDS011;11543;43.144;24.684;2024-01-30T04:07:54;20.33;;;12.50;;
22752;SDS011;11543;43.144;24.684;2024-01-30T04:10:19;22.42;;;12.23;;
22752;SDS011;11543;43.144;24.684;2024-01-30T04:12:45;19.85;;;11.98;;
22752;SDS011;11543;43.144;24.684;2024-01-30T04:15:10;19.92;;;11.65;;
22752;SDS011;11543;43.144;24.684;2024-01-30T04:17:36;21.52;;;12.13;;
22752;SDS011;11543;43.144;24.684;2024-01-30T04:20:01;21.40;;;12.43;;
22752;SDS011;11543;43.144;24.684;2024-01-30T04:22:27;25.48;;;13.95;;
22752;SDS011;11543;43.144;24.684;2024-01-30T04:24:53;27.10;;;15.95;;
22752;SDS011;11543;43.144;24.684;2024-01-30T04:27:18;27.92;;;15.85;;
22752;SDS011;11543;43.144;24.684;2024-01-30T04:29:43;27.13;;;15.10;;
22752;SDS011;11543;43.144;24.684;2024-01-30T04:32:09;24.65;;;14.95;;
22752;SDS011;11543;43.144;24.684;2024-01-30T04:34:36;26.42;;;15.20;;
22752;SDS011;11543;43.144;24.684;2024-01-30T04:37:02;29.88;;;17.25;;
22752;SDS011;11543;43.144;24.684;2024-01-30T04:39:27;34.13;;;17.65;;
22752;SDS011;11543;43.144;24.684;2024-01-30T04:41:53;29.38;;;15.98;;
22752;SDS011;11543;43.144;24.684;2024-01-30T04:44:18;25.15;;;14.93;;
22752;SDS011;11543;43.144;24.684;2024-01-30T04:46:44;23.75;;;13.50;;
22752;SDS011;11543;43.144;24.684;2024-01-30T04:49:10;22.83;;;12.98;;
22752;SDS011;11543;43.144;24.684;2024-01-30T04:51:37;23.73;;;13.38;;
22752;SDS011;11543;43.144;24.684;2024-01-30T04:54:02;21.98;;;13.18;;
22752;SDS011;11543;43.144;24.684;2024-01-30T04:56:28;24.45;;;13.20;;
22752;SDS011;11543;43.144;24.684;2024-01-30T04:58:53;22.83;;;12.95;;
22752;SDS011;11543;43.144;24.684;2024-01-30T05:01:19;24.10;;;13.15;;
22752;SDS011;11543;43.144;24.684;2024-01-30T05:03:44;24.30;;;13.80;;
22752;SDS011;11543;43.144;24.684;2024-01-30T05:06:12;21.98;;;13.18;;
22752;SDS011;11543;43.144;24.684;2024-01-30T05:08:38;23.10;;;12.98;;
22752;SDS011;11543;43.144;24.684;2024-01-30T05:11:04;22.08;;;12.68;;
22752;SDS011;11543;43.144;24.684;2024-01-30T05:13:31;22.95;;;13.77;;
22752;SDS011;11543;43.144;24.684;2024-01-30T05:15:56;23.60;;;13.80;;
22752;SDS011;11543;43.144;24.684;2024-01-30T05:18:23;23.67;;;13.73;;
22752;SDS011;11543;43.144;24.684;2024-01-30T05:20:49;23.50;;;13.65;;
22752;SDS011;11543;43.144;24.684;2024-01-30T05:23:15;25.13;;;13.82;;
22752;SDS011;11543;43.144;24.684;2024-01-30T05:25:41;24.85;;;13.57;;
22752;SDS011;11543;43.144;24.684;2024-01-30T05:28:07;25.60;;;14.65;;
22752;SDS011;11543;43.144;24.684;2024-01-30T05:30:33;26.85;;;15.45;;
22752;SDS011;11543;43.144;24.684;2024-01-30T05:32:58;25.08;;;13.18;;
22752;SDS011;11543;43.144;24.684;2024-01-30T05:35:24;26.55;;;13.25;;
22752;SDS011;11543;43.144;24.684;2024-01-30T05:37:49;23.83;;;12.93;;
22752;SDS011;11543;43.144;24.684;2024-01-30T05:40:15;29.20;;;12.90;;
22752;SDS011;11543;43.144;24.684;2024-01-30T05:42:41;23.00;;;12.65;;
22752;SDS011;11543;43.144;24.684;2024-01-30T05:45:07;22.75;;;13.23;;
22752;SDS011;11543;43.144;24.684;2024-01-30T05:47:33;22.92;;;12.98;;
22752;SDS011;11543;43.144;24.684;2024-01-30T05:50:00;25.05;;;14.30;;
22752;SDS011;11543;43.144;24.684;2024-01-30T05:52:25;29.05;;;15.45;;
22752;SDS011;11543;43.144;24.684;2024-01-30T05:54:50;42.25;;;24.45;;
22752;SDS011;11543;43.144;24.684;2024-01-30T05:57:16;64.97;;;33.17;;
22752;SDS011;11543;43.144;24.684;2024-01-30T05:59:42;44.35;;;23.92;;
22752;SDS011;11543;43.144;24.684;2024-01-30T06:02:10;42.47;;;23.13;;
22752;SDS011;11543;43.144;24.684;2024-01-30T06:04:36;39.75;;;21.77;;
22752;SDS011;11543;43.144;24.684;2024-01-30T06:07:02;39.95;;;22.38;;
22752;SDS011;11543;43.144;24.684;2024-01-30T06:09:28;36.67;;;21.30;;
22752;SDS011;11543;43.144;24.684;2024-01-30T06:11:54;38.10;;;21.05;;
22752;SDS011;11543;43.144;24.684;2024-01-30T06:14:19;46.42;;;24.23;;
22752;SDS011;11543;43.144;24.684;2024-01-30T06:16:45;55.72;;;28.92;;
22752;SDS011;11543;43.144;24.684;2024-01-30T06:19:10;53.00;;;27.70;;
22752;SDS011;11543;43.144;24.684;2024-01-30T06:21:36;61.22;;;31.20;;
22752;SDS011;11543;43.144;24.684;2024-01-30T06:24:03;68.85;;;34.88;;
22752;SDS011;11543;43.144;24.684;2024-01-30T06:26:29;55.35;;;30.63;;
22752;SDS011;11543;43.144;24.684;2024-01-30T06:28:54;45.75;;;27.00;;
22752;SDS011;11543;43.144;24.684;2024-01-30T06:31:20;46.58;;;26.25;;
22752;SDS011;11543;43.144;24.684;2024-01-30T06:33:47;43.13;;;23.75;;
22752;SDS011;11543;43.144;24.684;2024-01-30T06:36:12;40.55;;;23.05;;
22752;SDS011;11543;43.144;24.684;2024-01-30T06:38:38;38.70;;;21.70;;
22752;SDS011;11543;43.144;24.684;2024-01-30T06:41:16;30.80;;;18.23;;
22752;SDS011;11543;43.144;24.684;2024-01-30T06:46:51;37.47;;;19.42;;
22752;SDS011;11543;43.144;24.684;2024-01-30T06:49:35;34.83;;;18.73;;
22752;SDS011;11543;43.144;24.684;2024-01-30T06:52:07;34.95;;;18.10;;
22752;SDS011;11543;43.144;24.684;2024-01-30T06:57:21;27.80;;;15.48;;
22752;SDS011;11543;43.144;24.684;2024-01-30T06:59:47;28.85;;;14.88;;
22752;SDS011;11543;43.144;24.684;2024-01-30T07:02:12;28.38;;;15.13;;
22752;SDS011;11543;43.144;24.684;2024-01-30T07:04:38;25.80;;;14.95;;
22752;SDS011;11543;43.144;24.684;2024-01-30T07:07:04;26.20;;;14.32;;
22752;SDS011;11543;43.144;24.684;2024-01-30T07:09:30;25.05;;;13.52;;
22752;SDS011;11543;43.144;24.684;2024-01-30T07:11:57;27.65;;;14.25;;
22752;SDS011;11543;43.144;24.684;2024-01-30T07:14:23;23.65;;;13.75;;
22752;SDS011;11543;43.144;24.684;2024-01-30T07:16:50;27.08;;;14.85;;
22752;SDS011;11543;43.144;24.684;2024-01-30T07:19:16;26.63;;;14.15;;
22752;SDS011;11543;43.144;24.684;2024-01-30T07:21:41;27.30;;;14.70;;
22752;SDS011;11543;43.144;24.684;2024-01-30T07:24:07;26.08;;;14.10;;
22752;SDS011;11543;43.144;24.684;2024-01-30T07:26:33;25.48;;;15.27;;
22752;SDS011;11543;43.144;24.684;2024-01-30T07:28:58;26.65;;;14.73;;
22752;SDS011;11543;43.144;24.684;2024-01-30T07:31:24;28.90;;;15.15;;
22752;SDS011;11543;43.144;24.684;2024-01-30T07:33:49;26.40;;;14.43;;
22752;SDS011;11543;43.144;24.684;2024-01-30T07:36:15;28.40;;;14.77;;
22752;SDS011;11543;43.144;24.684;2024-01-30T07:38:40;26.50;;;15.15;;
22752;SDS011;11543;43.144;24.684;2024-01-30T07:41:08;27.13;;;15.23;;
22752;SDS011;11543;43.144;24.684;2024-01-30T07:43:34;26.08;;;14.50;;
22752;SDS011;11543;43.144;24.684;2024-01-30T07:45:59;33.53;;;16.17;;
22752;SDS011;11543;43.144;24.684;2024-01-30T07:48:26;34.25;;;15.80;;
22752;SDS011;11543;43.144;24.684;2024-01-30T07:50:52;31.02;;;15.65;;
22752;SDS011;11543;43.144;24.684;2024-01-30T07:53:18;29.02;;;15.77;;
22752;SDS011;11543;43.144;24.684;2024-01-30T07:55:43;32.15;;;17.05;;
22752;SDS011;11543;43.144;24.684;2024-01-30T07:58:11;34.55;;;16.67;;
22752;SDS011;11543;43.144;24.684;2024-01-30T08:00:37;32.03;;;18.27;;
22752;SDS011;11543;43.144;24.684;2024-01-30T08:03:03;44.83;;;22.70;;
22752;SDS011;11543;43.144;24.684;2024-01-30T08:05:29;50.70;;;25.30;;
22752;SDS011;11543;43.144;24.684;2024-01-30T08:07:54;43.30;;;23.38;;
22752;SDS011;11543;43.144;24.684;2024-01-30T08:10:20;39.25;;;21.30;;
22752;SDS011;11543;43.144;24.684;2024-01-30T08:12:45;35.75;;;20.02;;
22752;SDS011;11543;43.144;24.684;2024-01-30T08:15:11;31.15;;;17.58;;
22752;SDS011;11543;43.144;24.684;2024-01-30T08:17:37;31.58;;;16.75;;
22752;SDS011;11543;43.144;24.684;2024-01-30T08:20:03;26.00;;;16.15;;
22752;SDS011;11543;43.144;24.684;2024-01-30T08:22:29;26.45;;;15.73;;
22752;SDS011;11543;43.144;24.684;2024-01-30T08:24:55;26.65;;;15.23;;
22752;SDS011;11543;43.144;24.684;2024-01-30T08:27:21;27.75;;;15.45;;
22752;SDS011;11543;43.144;24.684;2024-01-30T08:29:46;28.55;;;15.90;;
22752;SDS011;11543;43.144;24.684;2024-01-30T08:32:12;32.22;;;16.55;;
22752;SDS011;11543;43.144;24.684;2024-01-30T08:34:37;29.77;;;15.80;;
22752;SDS011;11543;43.144;24.684;2024-01-30T08:37:03;32.95;;;17.85;;
22752;SDS011;11543;43.144;24.684;2024-01-30T08:39:28;28.80;;;16.63;;
22752;SDS011;11543;43.144;24.684;2024-01-30T08:41:54;30.75;;;17.38;;
22752;SDS011;11543;43.144;24.684;2024-01-30T08:44:19;31.65;;;17.90;;
22752;SDS011;11543;43.144;24.684;2024-01-30T08:46:45;34.00;;;18.73;;
22752;SDS011;11543;43.144;24.684;2024-01-30T08:49:10;36.22;;;18.55;;
22752;SDS011;11543;43.144;24.684;2024-01-30T08:51:38;31.52;;;17.92;;
22752;SDS011;11543;43.144;24.684;2024-01-30T08:54:06;31.65;;;16.75;;
22752;SDS011;11543;43.144;24.684;2024-01-30T08:56:32;27.50;;;14.98;;
22752;SDS011;11543;43.144;24.684;2024-01-30T08:58:58;29.27;;;15.77;;
22752;SDS011;11543;43.144;24.684;2024-01-30T09:01:23;27.55;;;15.68;;
22752;SDS011;11543;43.144;24.684;2024-01-30T09:03:50;26.90;;;15.30;;
22752;SDS011;11543;43.144;24.684;2024-01-30T09:06:15;27.50;;;16.25;;
22752;SDS011;11543;43.144;24.684;2024-01-30T09:08:41;28.33;;;15.68;;
22752;SDS011;11543;43.144;24.684;2024-01-30T09:11:10;31.58;;;16.77;;
22752;SDS011;11543;43.144;24.684;2024-01-30T09:13:37;28.55;;;15.93;;
22752;SDS011;11543;43.144;24.684;2024-01-30T09:16:02;27.33;;;16.40;;
22752;SDS011;11543;43.144;24.684;2024-01-30T09:18:28;25.48;;;15.18;;
22752;SDS011;11543;43.144;24.684;2024-01-30T09:20:54;28.70;;;16.60;;
22752;SDS011;11543;43.144;24.684;2024-01-30T09:23:19;26.10;;;15.88;;
22752;SDS011;11543;43.144;24.684;2024-01-30T09:25:45;33.97;;;17.67;;
22752;SDS011;11543;43.144;24.684;2024-01-30T09:28:10;30.65;;;16.95;;
22752;SDS011;11543;43.144;24.684;2024-01-30T09:30:36;25.25;;;15.40;;
22752;SDS011;11543;43.144;24.684;2024-01-30T09:33:02;26.27;;;15.05;;
22752;SDS011;11543;43.144;24.684;2024-01-30T09:35:27;22.30;;;13.88;;
22752;SDS011;11543;43.144;24.684;2024-01-30T09:37:53;26.33;;;14.18;;
22752;SDS011;11543;43.144;24.684;2024-01-30T09:40:18;25.45;;;14.35;;
22752;SDS011;11543;43.144;24.684;2024-01-30T09:42:49;27.67;;;14.98;;
22752;SDS011;11543;43.144;24.684;2024-01-30T09:45:17;23.17;;;13.23;;
22752;SDS011;11543;43.144;24.684;2024-01-30T09:47:46;22.77;;;13.40;;
22752;SDS011;11543;43.144;24.684;2024-01-30T09:50:13;22.48;;;13.90;;
22752;SDS011;11543;43.144;24.684;2024-01-30T09:52:40;23.67;;;14.98;;
22752;SDS011;11543;43.144;24.684;2024-01-30T09:55:06;24.17;;;14.27;;
22752;SDS011;11543;43.144;24.684;2024-01-30T09:57:35;23.92;;;14.43;;
22752;SDS011;11543;43.144;24.684;2024-01-30T10:00:02;22.77;;;14.48;;
22752;SDS011;11543;43.144;24.684;2024-01-30T10:02:29;23.67;;;14.07;;
22752;SDS011;11543;43.144;24.684;2024-01-30T10:04:56;24.27;;;14.90;;
22752;SDS011;11543;43.144;24.684;2024-01-30T10:07:23;21.20;;;13.43;;
22752;SDS011;11543;43.144;24.684;2024-01-30T10:09:48;22.60;;;13.88;;
22752;SDS011;11543;43.144;24.684;2024-01-30T10:12:17;22.70;;;12.98;;
22752;SDS011;11543;43.144;24.684;2024-01-30T10:14:42;23.60;;;13.95;;
22752;SDS011;11543;43.144;24.684;2024-01-30T10:17:09;21.98;;;13.43;;
22752;SDS011;11543;43.144;24.684;2024-01-30T10:19:41;19.63;;;12.20;;
22752;SDS011;11543;43.144;24.684;2024-01-30T10:22:07;21.00;;;12.57;;
22752;SDS011;11543;43.144;24.684;2024-01-30T10:24:33;21.02;;;12.65;;
22752;SDS011;11543;43.144;24.684;2024-01-30T10:27:01;23.25;;;12.18;;
22752;SDS011;11543;43.144;24.684;2024-01-30T10:29:27;20.52;;;12.70;;
22752;SDS011;11543;43.144;24.684;2024-01-30T10:32:03;21.48;;;12.73;;
22752;SDS011;11543;43.144;24.684;2024-01-30T10:34:33;21.00;;;12.70;;
22752;SDS011;11543;43.144;24.684;2024-01-30T10:37:11;22.77;;;13.88;;
22752;SDS011;11543;43.144;24.684;2024-01-30T10:39:41;22.52;;;13.88;;
22752;SDS011;11543;43.144;24.684;2024-01-30T10:42:18;22.83;;;13.30;;
22752;SDS011;11543;43.144;24.684;2024-01-30T10:47:28;32.38;;;17.38;;
22752;SDS011;11543;43.144;24.684;2024-01-30T10:50:01;25.75;;;15.20;;
22752;SDS011;11543;43.144;24.684;2024-01-30T10:52:30;24.48;;;15.30;;
22752;SDS011;11543;43.144;24.684;2024-01-30T10:54:57;27.30;;;16.45;;
22752;SDS011;11543;43.144;24.684;2024-01-30T10:57:23;29.00;;;17.67;;
22752;SDS011;11543;43.144;24.684;2024-01-30T10:59:50;30.38;;;17.08;;
22752;SDS011;11543;43.144;24.684;2024-01-30T11:02:18;29.45;;;16.75;;
22752;SDS011;11543;43.144;24.684;2024-01-30T11:04:45;41.17;;;22.65;;
22752;SDS011;11543;43.144;24.684;2024-01-30T11:07:14;27.48;;;15.63;;
22752;SDS011;11543;43.144;24.684;2024-01-30T11:09:50;21.88;;;13.32;;
22752;SDS011;11543;43.144;24.684;2024-01-30T11:12:26;23.77;;;13.73;;
22752;SDS011;11543;43.144;24.684;2024-01-30T11:15:08;22.63;;;14.07;;
22752;SDS011;11543;43.144;24.684;2024-01-30T11:17:41;30.65;;;19.52;;
22752;SDS011;11543;43.144;24.684;2024-01-30T11:20:16;27.90;;;15.68;;
22752;SDS011;11543;43.144;24.684;2024-01-30T11:22:49;21.77;;;14.75;;
22752;SDS011;11543;43.144;24.684;2024-01-30T11:25:17;21.42;;;13.55;;
22752;SDS011;11543;43.144;24.684;2024-01-30T11:27:44;51.53;;;29.27;;
22752;SDS011;11543;43.144;24.684;2024-01-30T11:30:11;64.38;;;30.92;;
22752;SDS011;11543;43.144;24.684;2024-01-30T11:32:57;22.65;;;13.10;;
22752;SDS011;11543;43.144;24.684;2024-01-30T11:35:29;22.98;;;13.85;;
22752;SDS011;11543;43.144;24.684;2024-01-30T11:37:57;19.13;;;11.60;;
22752;SDS011;11543;43.144;24.684;2024-01-30T11:40:23;12.50;;;8.30;;
22752;SDS011;11543;43.144;24.684;2024-01-30T11:42:52;13.40;;;8.63;;
22752;SDS011;11543;43.144;24.684;2024-01-30T11:45:19;15.43;;;8.00;;
22752;SDS011;11543;43.144;24.684;2024-01-30T11:47:45;10.98;;;7.40;;
22752;SDS011;11543;43.144;24.684;2024-01-30T11:50:10;10.23;;;6.82;;
22752;SDS011;11543;43.144;24.684;2024-01-30T11:52:36;11.10;;;6.40;;
22752;SDS011;11543;43.144;24.684;2024-01-30T11:55:02;11.15;;;6.65;;
22752;SDS011;11543;43.144;24.684;2024-01-30T11:57:28;11.02;;;6.95;;
22752;SDS011;11543;43.144;24.684;2024-01-30T11:59:54;12.50;;;7.45;;
22752;SDS011;11543;43.144;24.684;2024-01-30T12:02:19;12.20;;;7.85;;
22752;SDS011;11543;43.144;24.684;2024-01-30T12:04:45;10.98;;;7.20;;
22752;SDS011;11543;43.144;24.684;2024-01-30T12:07:11;12.38;;;7.10;;
22752;SDS011;11543;43.144;24.684;2024-01-30T12:09:37;9.88;;;6.38;;
22752;SDS011;11543;43.144;24.684;2024-01-30T12:12:02;9.70;;;6.10;;
22752;SDS011;11543;43.144;24.684;2024-01-30T12:14:28;9.30;;;6.40;;
22752;SDS011;11543;43.144;24.684;2024-01-30T12:16:54;11.20;;;6.35;;
22752;SDS011;11543;43.144;24.684;2024-01-30T12:19:23;9.30;;;6.25;;
22752;SDS011;11543;43.144;24.684;2024-01-30T12:21:58;9.38;;;5.90;;
22752;SDS011;11543;43.144;24.684;2024-01-30T12:24:27;10.23;;;6.40;;
22752;SDS011;11543;43.144;24.684;2024-01-30T12:26:58;10.80;;;6.97;;
22752;SDS011;11543;43.144;24.684;2024-01-30T12:29:25;8.73;;;5.65;;
22752;SDS011;11543;43.144;24.684;2024-01-30T12:31:53;10.63;;;6.32;;
22752;SDS011;11543;43.144;24.684;2024-01-30T12:34:19;11.55;;;6.97;;
22752;SDS011;11543;43.144;24.684;2024-01-30T12:36:46;8.68;;;6.20;;
22752;SDS011;11543;43.144;24.684;2024-01-30T12:39:14;10.38;;;5.75;;
22752;SDS011;11543;43.144;24.684;2024-01-30T12:41:40;9.68;;;6.30;;
22752;SDS011;11543;43.144;24.684;2024-01-30T12:44:05;9.70;;;5.95;;
22752;SDS011;11543;43.144;24.684;2024-01-30T12:46:32;11.00;;;6.10;;
22752;SDS011;11543;43.144;24.684;2024-01-30T12:48:59;9.88;;;6.30;;
22752;SDS011;11543;43.144;24.684;2024-01-30T12:51:25;10.27;;;6.13;;
22752;SDS011;11543;43.144;24.684;2024-01-30T12:53:51;9.38;;;5.63;;
22752;SDS011;11543;43.144;24.684;2024-01-30T12:56:16;8.70;;;5.85;;
22752;SDS011;11543;43.144;24.684;2024-01-30T12:58:42;10.20;;;6.22;;
22752;SDS011;11543;43.144;24.684;2024-01-30T13:01:08;9.05;;;5.80;;
22752;SDS011;11543;43.144;24.684;2024-01-30T13:03:33;9.00;;;5.53;;
22752;SDS011;11543;43.144;24.684;2024-01-30T13:05:59;9.43;;;5.82;;
22752;SDS011;11543;43.144;24.684;2024-01-30T13:08:25;9.45;;;6.07;;
22752;SDS011;11543;43.144;24.684;2024-01-30T13:10:50;9.68;;;5.88;;
22752;SDS011;11543;43.144;24.684;2024-01-30T13:13:16;8.57;;;5.72;;
22752;SDS011;11543;43.144;24.684;2024-01-30T13:15:42;9.20;;;6.38;;
22752;SDS011;11543;43.144;24.684;2024-01-30T13:18:07;11.45;;;7.13;;
22752;SDS011;11543;43.144;24.684;2024-01-30T13:20:33;11.05;;;7.43;;
22752;SDS011;11543;43.144;24.684;2024-01-30T13:22:58;13.43;;;9.00;;
22752;SDS011;11543;43.144;24.684;2024-01-30T13:25:24;13.63;;;9.10;;
22752;SDS011;11543;43.144;24.684;2024-01-30T13:27:49;11.02;;;6.80;;
22752;SDS011;11543;43.144;24.684;2024-01-30T13:30:15;9.60;;;5.97;;
22752;SDS011;11543;43.144;24.684;2024-01-30T13:32:40;10.15;;;6.38;;
22752;SDS011;11543;43.144;24.684;2024-01-30T13:35:09;8.73;;;5.90;;
22752;SDS011;11543;43.144;24.684;2024-01-30T13:37:35;10.55;;;6.18;;
22752;SDS011;11543;43.144;24.684;2024-01-30T13:40:01;8.30;;;4.97;;
22752;SDS011;11543;43.144;24.684;2024-01-30T13:42:27;8.77;;;5.45;;
22752;SDS011;11543;43.144;24.684;2024-01-30T13:44:53;9.50;;;5.97;;
22752;SDS011;11543;43.144;24.684;2024-01-30T13:47:18;9.15;;;5.70;;
22752;SDS011;11543;43.144;24.684;2024-01-30T13:49:46;11.20;;;6.57;;
22752;SDS011;11543;43.144;24.684;2024-01-30T13:52:12;15.63;;;10.38;;
22752;SDS011;11543;43.144;24.684;2024-01-30T13:54:38;14.27;;;10.07;;
22752;SDS011;11543;43.144;24.684;2024-01-30T13:57:03;9.77;;;6.38;;
22752;SDS011;11543;43.144;24.684;2024-01-30T13:59:30;8.82;;;5.43;;
22752;SDS011;11543;43.144;24.684;2024-01-30T14:01:55;9.55;;;5.63;;
22752;SDS011;11543;43.144;24.684;2024-01-30T14:04:20;9.27;;;5.78;;
22752;SDS011;11543;43.144;24.684;2024-01-30T14:06:46;11.23;;;7.25;;
22752;SDS011;11543;43.144;24.684;2024-01-30T14:09:12;14.80;;;8.98;;
22752;SDS011;11543;43.144;24.684;2024-01-30T14:11:40;10.85;;;5.93;;
22752;SDS011;11543;43.144;24.684;2024-01-30T14:14:06;10.18;;;6.57;;
22752;SDS011;11543;43.144;24.684;2024-01-30T14:16:32;11.27;;;6.28;;